Altair — 9LC2000 — position and weather

sailwx.info

Track history (hours):
 
Tides and Currents Weather Stations Pressure Air Temp Water Temp Dewpoint Dewpoint Depression Visibility Wind Speed Wind Dir Waves Ship Positions

Altair

Last reported at 2015-Sep-03 03:33 UTC. Time now 2015-Sep-05 10:14 UTC.
Position N 45°00' E 036°31'.

Length 108 m; draft 2.7 m.

Type: Cargo ship. MMSI: 667021000.

Date/timePositionNaut miles runAvg speedWind from/ knotsBaromVisibWave heightAir tempDewpointWater temp
2015-Sep-03 03:33N 45°00' E 036°31'7 6.8
2015-Sep-03 02:29N 44°53' E 036°32'7 7.5
2015-Sep-03 01:30N 44°46' E 036°32'7 7.7
2015-Sep-03 00:33N 44°38' E 036°32'30 7.1
2015-Sep-02 20:24N 44°09' E 036°32'6 6.8
2015-Sep-02 19:33N 44°03' E 036°32'14 6.7
2015-Sep-02 17:27N 43°49' E 036°30'6 6.8
2015-Sep-02 16:33N 43°43' E 036°30'7 6.8
2015-Sep-02 15:33N 43°36' E 036°30'8 7.4
2015-Sep-02 14:33N 43°29' E 036°29'7 7.2
2015-Sep-02 13:33N 43°21' E 036°28'7 7.1
2015-Sep-02 12:33N 43°14' E 036°28'7 7.1
2015-Sep-02 11:33N 43°07' E 036°28'8 7.3
2015-Sep-02 10:31N 42°60' E 036°27'8 7.4
2015-Sep-02 09:23N 42°51' E 036°27'6 7.4
2015-Sep-02 08:33N 42°45' E 036°27'7 7.3
2015-Sep-02 07:33N 42°38' E 036°26'7 7.1
2015-Sep-02 06:33N 42°31' E 036°26'7 7.1
2015-Sep-02 05:33N 42°24' E 036°26'7 7.0
2015-Sep-02 04:33N 42°17' E 036°25'  
2015-Aug-28 10:33N 41°59' E 036°25'16 7.9
2015-Aug-28 08:28N 42°15' E 036°26'7 7.7
2015-Aug-28 07:32N 42°23' E 036°27'38 7.2
2015-Aug-28 02:17N 43°00' E 036°26'5 6.8
2015-Aug-28 01:33N 43°05' E 036°26'43 7.1
2015-Aug-27 19:33N 43°48' E 036°27'  
Track history (hours):
 
Tides and Currents Weather Stations Pressure Air Temp Water Temp Dewpoint Dewpoint Depression Visibility Wind Speed Wind Dir Waves Ship Positions

Altair

Last reported at 2015-Sep-03 03:33 UTC. Time now 2015-Sep-05 10:14 UTC.
Position N 45°00' E 036°31'.

Length 108 m; draft 2.7 m.

Type: Cargo ship. MMSI: 667021000.

Date/timePositionNaut miles runAvg speedWind from/ knotsBaromVisibWave heightAir tempDewpointWater temp
2015-Sep-03 03:33N 45°00' E 036°31'7 6.8
2015-Sep-03 02:29N 44°53' E 036°32'7 7.5
2015-Sep-03 01:30N 44°46' E 036°32'7 7.7
2015-Sep-03 00:33N 44°38' E 036°32'30 7.1
2015-Sep-02 20:24N 44°09' E 036°32'6 6.8
2015-Sep-02 19:33N 44°03' E 036°32'14 6.7
2015-Sep-02 17:27N 43°49' E 036°30'6 6.8
2015-Sep-02 16:33N 43°43' E 036°30'7 6.8
2015-Sep-02 15:33N 43°36' E 036°30'8 7.4
2015-Sep-02 14:33N 43°29' E 036°29'7 7.2
2015-Sep-02 13:33N 43°21' E 036°28'7 7.1
2015-Sep-02 12:33N 43°14' E 036°28'7 7.1
2015-Sep-02 11:33N 43°07' E 036°28'8 7.3
2015-Sep-02 10:31N 42°60' E 036°27'8 7.4
2015-Sep-02 09:23N 42°51' E 036°27'6 7.4
2015-Sep-02 08:33N 42°45' E 036°27'7 7.3
2015-Sep-02 07:33N 42°38' E 036°26'7 7.1
2015-Sep-02 06:33N 42°31' E 036°26'7 7.1
2015-Sep-02 05:33N 42°24' E 036°26'7 7.0
2015-Sep-02 04:33N 42°17' E 036°25'  
2015-Aug-28 10:33N 41°59' E 036°25'16 7.9
2015-Aug-28 08:28N 42°15' E 036°26'7 7.7
2015-Aug-28 07:32N 42°23' E 036°27'38 7.2
2015-Aug-28 02:17N 43°00' E 036°26'5 6.8
2015-Aug-28 01:33N 43°05' E 036°26'43 7.1
2015-Aug-27 19:33N 43°48' E 036°27'  

Dump ship's entire track history